Time;durP1;ratioP1;P1;durP2;ratioP2;P2;SDS_P1;SDS_P2;PMS_P1;PMS_P2;Temp;Humidity;BMP_temperature;BMP_pressure;BME280_temperature;BME280_humidity;BME280_pressure;Samples;Min_cycle;Max_cycle;Signal;HPM_P1;HPM_P2
2023/09/20 00:02:12;;;;;;;3.53;1.40;;;;;;;24.16;57.51;100619.94;5052188;28;20048;-39
2023/09/20 00:04:42;;;;;;;7.05;1.25;;;;;;;24.14;57.32;100614.72;5056090;28;20040;-40
2023/09/20 00:07:09;;;;;;;3.58;1.40;;;;;;;24.15;57.64;100616.31;5052030;28;20060;-39
2023/09/20 00:09:38;;;;;;;3.15;1.08;;;;;;;24.17;57.43;100621.53;5071802;28;20502;-42
2023/09/20 00:12:06;;;;;;;5.60;1.45;;;;;;;24.15;57.65;100615.50;5071355;28;20047;-38
2023/09/20 00:14:34;;;;;;;5.07;1.30;;;;;;;24.15;57.82;100612.69;5071068;28;20045;-41
2023/09/20 00:17:02;;;;;;;4.13;1.38;;;;;;;24.15;57.68;100612.69;5066592;28;20175;-40
2023/09/20 00:19:30;;;;;;;4.45;1.35;;;;;;;24.16;57.33;100617.94;5051952;28;20055;-41
2023/09/20 00:21:57;;;;;;;3.38;1.10;;;;;;;24.16;57.91;100617.94;5069245;28;20055;-39
2023/09/20 00:24:24;;;;;;;4.55;1.20;;;;;;;24.18;58.06;100615.50;5031773;28;20049;-41
2023/09/20 00:26:51;;;;;;;2.28;1.10;;;;;;;24.17;58.12;100607.47;5049335;28;20061;-39
2023/09/20 00:29:19;;;;;;;2.90;1.13;;;;;;;24.18;57.88;100607.06;5063986;28;20059;-41
2023/09/20 00:31:46;;;;;;;3.22;1.30;;;;;;;24.17;57.62;100604.66;5073297;28;20045;-39
2023/09/20 00:34:13;;;;;;;8.20;1.85;;;;;;;24.17;57.98;100604.66;5070317;28;20052;-43
2023/09/20 00:36:41;;;;;;;3.03;1.27;;;;;;;24.17;57.75;100593.41;5053196;28;20033;-42
2023/09/20 00:39:10;;;;;;;3.90;1.33;;;;;;;24.15;57.98;100595.81;5051652;28;20048;-40
2023/09/20 00:41:37;;;;;;;2.95;1.00;;;;;;;24.16;57.78;100598.25;5082843;28;20048;-39
2023/09/20 00:44:04;;;;;;;3.20;1.25;;;;;;;24.17;58.13;100597.03;5070242;28;20726;-43
2023/09/20 00:46:32;;;;;;;2.72;1.00;;;;;;;24.17;57.99;100591.38;5054767;28;20060;-38
2023/09/20 00:49:00;;;;;;;2.55;0.90;;;;;;;24.16;58.12;100600.25;5050327;28;20060;-39
2023/09/20 00:51:27;;;;;;;3.53;1.00;;;;;;;24.15;58.34;100588.19;5061536;28;20055;-38
2023/09/20 00:53:58;;;;;;;2.92;1.13;;;;;;;24.16;58.42;100589.81;5077022;28;20048;-39
2023/09/20 00:56:25;;;;;;;3.58;1.20;;;;;;;24.13;58.21;100587.78;5051602;28;20045;-46
2023/09/20 00:58:55;;;;;;;3.20;1.10;;;;;;;24.12;58.71;100585.38;5034062;28;20049;-39
2023/09/20 01:01:26;;;;;;;3.35;1.23;;;;;;;24.10;58.64;100577.34;5050929;28;20052;-40
2023/09/20 01:03:55;;;;;;;3.75;1.33;;;;;;;24.15;58.57;100584.56;5051682;28;20045;-38
2023/09/20 01:06:26;;;;;;;3.60;1.02;;;;;;;24.09;58.28;100589.00;5023840;28;20057;-41
2023/09/20 01:08:55;;;;;;;3.65;1.20;;;;;;;24.07;58.31;100580.97;5065915;28;20446;-39
2023/09/20 01:11:24;;;;;;;3.75;1.40;;;;;;;24.08;58.41;100578.94;5058844;28;20045;-41
2023/09/20 01:13:52;;;;;;;2.72;1.00;;;;;;;24.09;58.78;100566.50;5066011;28;20061;-40
2023/09/20 01:16:19;;;;;;;2.92;1.10;;;;;;;24.09;58.58;100572.13;5051206;28;20044;-41
2023/09/20 01:18:47;;;;;;;3.85;1.42;;;;;;;24.08;58.95;100565.69;5051189;28;20064;-38
2023/09/20 01:21:15;;;;;;;4.35;1.35;;;;;;;24.07;58.92;100578.16;5051103;28;20074;-39
2023/09/20 01:23:45;;;;;;;3.60;1.10;;;;;;;24.08;58.99;100574.13;5049930;28;20522;-41
2023/09/20 01:26:12;;;;;;;5.43;1.20;;;;;;;24.10;58.86;100577.34;5049852;28;20574;-40
2023/09/20 01:28:40;;;;;;;3.15;1.20;;;;;;;24.10;58.83;100574.53;5057858;28;20049;-41
2023/09/20 01:31:08;;;;;;;3.30;0.93;;;;;;;24.08;59.18;100576.94;5067546;28;20045;-40
2023/09/20 01:33:35;;;;;;;3.03;1.20;;;;;;;24.11;58.80;100580.97;5048924;28;20054;-40
2023/09/20 01:36:06;;;;;;;3.92;1.17;;;;;;;24.09;59.04;100581.38;5042102;28;20053;-40
2023/09/20 01:38:34;;;;;;;3.72;1.05;;;;;;;24.08;59.29;100571.31;5038661;28;20050;-40
2023/09/20 01:41:05;;;;;;;3.55;1.05;;;;;;;24.10;59.23;100566.09;5044163;28;20059;-39
2023/09/20 01:43:33;;;;;;;3.53;1.10;;;;;;;24.12;59.30;100568.50;5054616;28;20044;-40
2023/09/20 01:46:02;;;;;;;4.68;1.45;;;;;;;24.12;59.56;100562.88;5054117;28;20041;-40
2023/09/20 01:48:32;;;;;;;2.83;1.00;;;;;;;24.12;59.58;100571.31;5051614;28;20062;-41
2023/09/20 01:50:59;;;;;;;4.45;0.93;;;;;;;24.08;59.53;100568.50;5056267;28;20052;-40
2023/09/20 01:53:27;;;;;;;2.83;0.80;;;;;;;24.12;59.66;100557.22;5074823;28;20071;-39
2023/09/20 01:55:57;;;;;;;7.50;1.27;;;;;;;24.10;59.88;100560.47;5065393;28;20049;-41
2023/09/20 01:58:25;;;;;;;1.92;1.10;;;;;;;24.09;59.81;100558.06;5032859;28;20057;-40
2023/09/20 02:00:52;;;;;;;5.53;1.17;;;;;;;24.09;59.57;100555.25;5038636;28;20060;-40
2023/09/20 02:03:19;;;;;;;2.47;0.98;;;;;;;24.06;60.06;100559.66;5054255;28;20052;-40
2023/09/20 02:05:48;;;;;;;2.95;1.00;;;;;;;24.06;59.70;100554.03;5080515;28;20044;-41
2023/09/20 02:08:17;;;;;;;5.50;1.05;;;;;;;24.06;60.13;100554.03;5063483;28;20056;-40
2023/09/20 02:10:46;;;;;;;2.72;1.00;;;;;;;24.06;60.08;100548.41;5069991;28;20054;-40
2023/09/20 02:13:15;;;;;;;2.55;0.90;;;;;;;24.06;60.04;100556.84;5069446;28;20506;-41
2023/09/20 02:15:44;;;;;;;2.92;1.10;;;;;;;24.06;60.13;100539.19;5065469;28;20214;-41
2023/09/20 02:18:12;;;;;;;4.40;1.20;;;;;;;24.06;59.94;100536.38;5068679;28;20060;-39
2023/09/20 02:20:39;;;;;;;2.40;0.88;;;;;;;24.05;59.72;100537.56;5051982;28;20056;-41
2023/09/20 02:23:12;;;;;;;2.15;0.98;;;;;;;24.06;59.63;100531.53;5053740;28;20128;-40
2023/09/20 02:25:43;;;;;;;3.45;1.10;;;;;;;24.06;59.86;100523.06;5060180;28;20074;-41
2023/09/20 02:28:11;;;;;;;3.75;0.98;;;;;;;24.05;59.70;100527.13;5072069;28;20407;-40
2023/09/20 02:30:39;;;;;;;3.05;1.17;;;;;;;23.96;59.67;100515.47;5071627;28;20053;-43
2023/09/20 02:33:08;;;;;;;4.05;1.00;;;;;;;23.97;60.00;100519.88;5068385;28;20060;-40
2023/09/20 02:35:36;;;;;;;2.28;0.82;;;;;;;24.00;59.67;100518.28;5052175;28;20057;-41
2023/09/20 02:38:05;;;;;;;2.42;1.02;;;;;;;24.00;59.70;100521.91;5035136;28;20067;-40
2023/09/20 02:40:35;;;;;;;2.97;1.08;;;;;;;23.99;59.77;100506.22;5069306;28;20049;-40
2023/09/20 02:43:08;;;;;;;2.85;1.10;;;;;;;23.98;59.74;100510.22;5083389;28;20068;-41
2023/09/20 02:45:39;;;;;;;2.55;0.95;;;;;;;23.98;60.11;100515.06;5042684;28;20068;-43
2023/09/20 02:48:07;;;;;;;2.13;0.80;;;;;;;23.99;59.96;100513.84;5052190;28;20064;-40
2023/09/20 02:50:35;;;;;;;4.00;1.17;;;;;;;23.98;59.75;100524.31;5035781;28;20048;-40
2023/09/20 02:53:05;;;;;;;3.30;1.08;;;;;;;23.98;59.77;100515.84;5052965;28;20076;-39
2023/09/20 02:55:33;;;;;;;2.92;0.80;;;;;;;23.98;59.67;100524.31;5049183;28;20041;-40
2023/09/20 02:58:00;;;;;;;3.22;1.27;;;;;;;23.97;59.58;100514.25;5051084;28;20057;-39
2023/09/20 03:00:31;;;;;;;3.00;1.00;;;;;;;23.98;59.88;100507.41;5050451;28;20064;-42
2023/09/20 03:03:02;;;;;;;2.20;0.90;;;;;;;24.04;59.79;100511.44;5035811;28;20072;-41
2023/09/20 03:05:32;;;;;;;2.42;0.80;;;;;;;24.05;59.86;100513.03;5035568;28;20057;-43
2023/09/20 03:08:11;;;;;;;2.83;1.15;;;;;;;24.05;60.14;100506.59;5071630;28;20040;-39
2023/09/20 03:10:43;;;;;;;2.38;0.90;;;;;;;24.04;60.04;100508.59;5071245;28;20052;-41
2023/09/20 03:13:16;;;;;;;2.17;0.88;;;;;;;24.04;60.03;100494.53;5051501;28;20064;-43
2023/09/20 03:15:45;;;;;;;3.88;1.05;;;;;;;24.00;60.19;100498.59;5032626;28;20041;-40
2023/09/20 03:18:18;;;;;;;2.83;1.00;;;;;;;23.99;60.37;100489.34;5043891;28;20053;-39
2023/09/20 03:20:52;;;;;;;3.72;1.00;;;;;;;23.98;60.70;100481.28;5051071;28;20052;-41
2023/09/20 03:23:21;;;;;;;3.97;1.38;;;;;;;23.96;60.42;100484.50;5044262;28;20764;-44
2023/09/20 03:25:48;;;;;;;4.72;1.08;;;;;;;23.95;60.67;100477.28;5047182;28;20049;-42
2023/09/20 03:28:22;;;;;;;3.10;1.05;;;;;;;23.95;60.33;100468.03;5055283;28;20055;-42
2023/09/20 03:30:52;;;;;;;2.37;0.93;;;;;;;23.96;60.51;100467.63;5051870;28;20052;-43
2023/09/20 03:33:21;;;;;;;4.32;1.08;;;;;;;23.97;60.38;100468.44;5071182;28;20302;-44
2023/09/20 03:35:49;;;;;;;1.75;0.80;;;;;;;23.95;60.60;100468.03;5051652;28;20544;-40
2023/09/20 03:38:16;;;;;;;3.60;1.13;;;;;;;23.98;60.35;100458.78;5050868;28;20053;-40
2023/09/20 03:40:44;;;;;;;3.03;0.80;;;;;;;23.95;60.73;100459.59;5051089;28;20049;-42
2023/09/20 03:43:12;;;;;;;3.67;1.20;;;;;;;23.96;60.61;100447.94;5057206;28;20049;-42
2023/09/20 03:45:46;;;;;;;2.42;1.02;;;;;;;23.94;60.78;100443.91;5050880;28;20053;-40
2023/09/20 03:48:15;;;;;;;3.13;1.10;;;;;;;23.92;60.67;100444.31;5050842;28;20045;-40
2023/09/20 03:50:45;;;;;;;5.30;1.35;;;;;;;23.93;60.58;100445.13;5051721;28;20306;-40
2023/09/20 03:53:13;;;;;;;2.55;1.02;;;;;;;23.86;60.66;100445.97;5034696;28;20495;-40
2023/09/20 03:55:48;;;;;;;3.15;1.02;;;;;;;23.88;60.55;100442.75;5050320;28;20059;-40
2023/09/20 03:58:17;;;;;;;4.53;1.00;;;;;;;23.89;60.67;100439.53;5069150;28;20048;-41
2023/09/20 04:00:45;;;;;;;3.97;1.25;;;;;;;23.88;60.46;100437.94;5070493;28;20052;-40
2023/09/20 04:03:13;;;;;;;3.65;0.93;;;;;;;23.90;60.52;100443.16;5070449;28;20077;-39
2023/09/20 04:05:41;;;;;;;3.08;1.15;;;;;;;23.94;60.54;100439.09;5087070;28;20059;-40
2023/09/20 04:08:16;;;;;;;3.47;1.02;;;;;;;23.92;60.49;100435.88;5053631;28;20048;-42
2023/09/20 04:10:45;;;;;;;3.20;1.13;;;;;;;23.93;60.56;100437.50;5060989;28;20083;-43
2023/09/20 04:13:14;;;;;;;2.80;0.77;;;;;;;23.91;60.30;100434.28;5052334;28;20076;-40
2023/09/20 04:15:42;;;;;;;4.13;1.15;;;;;;;23.91;60.61;100428.66;5051499;28;20036;-39
2023/09/20 04:18:12;;;;;;;2.55;0.90;;;;;;;23.90;60.37;100427.06;5050293;28;20040;-41
2023/09/20 04:20:42;;;;;;;6.20;1.10;;;;;;;23.92;60.54;100433.06;5051094;28;20515;-39
2023/09/20 04:23:10;;;;;;;3.03;0.80;;;;;;;23.97;60.31;100421.38;5033999;28;20041;-39
2023/09/20 04:25:40;;;;;;;4.72;1.00;;;;;;;24.01;60.35;100424.22;5066756;28;20056;-40
2023/09/20 04:28:09;;;;;;;3.55;1.00;;;;;;;23.98;60.19;100414.56;5046480;28;20057;-40
2023/09/20 04:30:38;;;;;;;2.22;0.93;;;;;;;23.95;60.47;100415.41;5029270;28;20049;-39
2023/09/20 04:33:07;;;;;;;2.60;0.80;;;;;;;23.96;60.60;100407.72;5049275;28;20057;-39
2023/09/20 04:35:38;;;;;;;3.45;1.20;;;;;;;23.95;60.61;100414.59;5030031;28;20080;-40
2023/09/20 04:38:11;;;;;;;4.25;1.10;;;;;;;23.93;60.75;100403.75;5049303;28;20052;-43
2023/09/20 04:40:38;;;;;;;2.28;0.80;;;;;;;23.90;60.87;100406.56;5049560;28;20494;-42
2023/09/20 04:43:06;;;;;;;1.92;0.90;;;;;;;23.93;60.73;100394.50;5029916;28;20053;-42
2023/09/20 04:45:34;;;;;;;2.70;0.85;;;;;;;23.93;60.54;100402.94;5049887;28;20060;-40
2023/09/20 04:48:01;;;;;;;3.92;1.05;;;;;;;23.92;60.57;100399.31;5049253;28;20060;-39
2023/09/20 04:50:29;;;;;;;2.85;1.20;;;;;;;23.93;60.57;100395.31;5066595;28;20040;-39
2023/09/20 04:52:56;;;;;;;3.67;0.90;;;;;;;23.91;60.60;100383.66;5050242;28;20055;-39
2023/09/20 04:55:25;;;;;;;4.75;1.10;;;;;;;23.92;60.56;100387.28;5051408;28;20052;-39
2023/09/20 04:57:52;;;;;;;4.25;1.08;;;;;;;23.91;60.57;100380.84;5044528;28;20068;-39
2023/09/20 05:00:26;;;;;;;3.60;1.20;;;;;;;23.91;60.37;100385.66;5071106;28;20040;-39
2023/09/20 05:02:53;;;;;;;3.33;1.23;;;;;;;23.92;60.68;100385.25;5085361;28;20048;-43
2023/09/20 05:05:23;;;;;;;4.88;1.20;;;;;;;23.95;60.33;100390.06;5046834;28;20152;-42
2023/09/20 05:07:52;;;;;;;;;;;;;;;23.97;60.27;100381.22;5082673;28;20045;-40
2023/09/20 05:10:19;;;;;;;3.67;1.10;;;;;;;24.05;60.28;100391.22;5090483;28;19921;-39
2023/09/20 05:12:47;;;;;;;4.65;1.10;;;;;;;24.11;59.71;100383.97;5069774;28;20067;-42
2023/09/20 05:15:15;;;;;;;4.00;1.27;;;;;;;24.09;59.95;100381.56;5073609;28;20056;-41
2023/09/20 05:17:43;;;;;;;3.17;1.20;;;;;;;24.08;59.91;100379.94;5073189;28;20083;-44
2023/09/20 05:20:14;;;;;;;5.47;1.20;;;;;;;24.09;59.84;100380.75;5075024;28;20067;-40
2023/09/20 05:22:41;;;;;;;4.35;1.35;;;;;;;24.07;59.75;100384.00;5074350;28;20049;-39
2023/09/20 05:25:09;;;;;;;2.70;1.00;;;;;;;24.12;59.67;100379.94;5065598;28;20052;-40
2023/09/20 05:27:37;;;;;;;3.97;1.13;;;;;;;24.09;59.75;100383.56;5037276;28;20041;-41
2023/09/20 05:30:05;;;;;;;5.70;1.38;;;;;;;24.12;59.65;100382.75;5066298;28;20072;-42
2023/09/20 05:32:32;;;;;;;8.38;1.35;;;;;;;24.12;59.55;100386.38;5061643;28;20747;-39
2023/09/20 05:35:00;;;;;;;4.00;1.08;;;;;;;24.13;59.73;100392.81;5066705;28;20418;-40
2023/09/20 05:37:28;;;;;;;3.53;1.13;;;;;;;24.10;59.70;100397.22;5054565;28;20769;-39
2023/09/20 05:39:55;;;;;;;5.55;1.52;;;;;;;24.11;59.61;100398.03;5054695;28;20045;-40
2023/09/20 05:42:23;;;;;;;4.35;1.13;;;;;;;24.13;59.59;100392.81;5069423;28;20048;-40
2023/09/20 05:44:50;;;;;;;3.85;1.30;;;;;;;24.13;59.53;100398.44;5054114;28;20072;-40
2023/09/20 05:47:17;;;;;;;4.75;1.35;;;;;;;24.11;59.50;100392.41;5054464;28;20049;-45
2023/09/20 05:49:45;;;;;;;3.95;1.40;;;;;;;24.08;59.88;100394.03;5069006;28;20064;-41
2023/09/20 05:52:12;;;;;;;4.15;1.17;;;;;;;24.06;59.80;100382.38;5071415;28;20041;-40
2023/09/20 05:54:42;;;;;;;3.92;1.10;;;;;;;24.08;59.71;100381.94;5074232;28;20044;-40
2023/09/20 05:57:12;;;;;;;4.30;1.10;;;;;;;24.04;59.73;100384.78;5054983;28;20045;-43
2023/09/20 05:59:40;;;;;;;6.18;1.50;;;;;;;24.03;59.85;100377.56;5051378;28;20057;-44
2023/09/20 06:02:07;;;;;;;4.22;1.10;;;;;;;24.03;59.73;100377.56;5070489;28;20484;-40
2023/09/20 06:04:36;;;;;;;8.02;1.45;;;;;;;24.01;59.93;100368.75;5059595;28;20454;-47
2023/09/20 06:07:04;;;;;;;8.50;1.83;;;;;;;24.01;59.81;100365.94;5072342;28;20052;-43
2023/09/20 06:09:32;;;;;;;4.30;1.60;;;;;;;23.97;59.95;100359.47;5054850;28;20037;-40
2023/09/20 06:12:03;;;;;;;5.35;1.50;;;;;;;23.91;60.18;100347.06;5073626;28;20079;-42
2023/09/20 06:14:31;;;;;;;9.32;1.90;;;;;;;23.96;59.97;100354.28;5053341;28;20514;-41
2023/09/20 06:17:00;;;;;;;5.78;1.63;;;;;;;24.00;59.75;100355.09;5053916;28;20052;-39
2023/09/20 06:19:30;;;;;;;3.40;1.10;;;;;;;24.00;59.65;100350.28;5053871;28;20540;-40
2023/09/20 06:21:58;;;;;;;5.47;1.67;;;;;;;24.01;59.87;100368.75;5054586;28;20056;-42
2023/09/20 06:24:25;;;;;;;3.75;1.27;;;;;;;24.01;59.79;100365.13;5048165;28;20037;-42
2023/09/20 06:26:53;;;;;;;5.22;1.52;;;;;;;24.01;59.73;100374.38;5047876;28;20052;-42
2023/09/20 06:29:21;;;;;;;5.47;1.55;;;;;;;24.02;59.94;100366.75;5065966;28;20049;-42
2023/09/20 06:31:48;;;;;;;3.33;1.33;;;;;;;24.01;59.88;100367.94;5056077;28;20049;-42
2023/09/20 06:34:17;;;;;;;6.28;1.58;;;;;;;24.06;59.86;100357.03;5055321;28;20045;-42
2023/09/20 06:36:45;;;;;;;2.92;1.10;;;;;;;24.10;59.63;100363.47;5067235;28;20056;-44
2023/09/20 06:39:13;;;;;;;5.13;1.60;;;;;;;24.08;59.73;100365.88;5061648;28;20044;-44
2023/09/20 06:41:42;;;;;;;11.10;1.50;;;;;;;24.09;59.41;100359.06;5073215;28;20048;-40
2023/09/20 06:44:12;;;;;;;5.70;1.83;;;;;;;24.07;59.45;100367.09;5055844;28;20040;-41
2023/09/20 06:46:43;;;;;;;7.57;1.70;;;;;;;24.05;59.82;100358.28;5059869;28;20051;-41
2023/09/20 06:49:11;;;;;;;7.28;1.80;;;;;;;24.08;59.67;100360.25;5055233;28;20060;-42
2023/09/20 06:51:42;;;;;;;4.75;1.30;;;;;;;24.09;59.89;100370.31;5065812;28;20049;-40
2023/09/20 06:54:09;;;;;;;7.28;1.52;;;;;;;24.09;59.51;100375.13;5057314;28;20061;-41
2023/09/20 06:56:37;;;;;;;6.60;1.80;;;;;;;24.10;59.73;100366.28;5048843;28;20057;-40
2023/09/20 06:59:05;;;;;;;6.93;1.60;;;;;;;23.92;60.60;100371.19;5047956;28;20415;-41
2023/09/20 07:01:33;;;;;;;7.85;1.60;;;;;;;23.87;60.91;100363.16;5045861;28;20507;-40
2023/09/20 07:04:00;;;;;;;7.50;1.58;;;;;;;23.84;61.08;100366.81;5046996;28;20037;-39
2023/09/20 07:06:31;;;;;;;9.45;2.30;;;;;;;24.04;64.52;100364.31;5040771;28;20140;-42
2023/09/20 07:08:58;;;;;;;7.85;2.42;;;;;;;24.06;66.49;100365.47;5041486;28;20044;-42
2023/09/20 07:11:28;;;;;;;7.82;1.80;;;;;;;23.66;68.82;100370.94;5040597;28;20060;-43
2023/09/20 07:13:58;;;;;;;9.73;2.20;;;;;;;23.70;68.36;100368.91;5042454;28;20045;-41
2023/09/20 07:16:26;;;;;;;7.45;1.88;;;;;;;23.70;68.54;100366.09;5041907;28;20053;-40
2023/09/20 07:18:54;;;;;;;13.60;2.05;;;;;;;23.40;64.90;100373.06;5052124;28;20056;-40
2023/09/20 07:21:21;;;;;;;13.57;1.95;;;;;;;23.60;66.37;100370.56;5051753;28;20467;-40
2023/09/20 07:23:48;;;;;;;15.70;2.20;;;;;;;23.57;65.56;100360.16;5044271;28;20049;-40
2023/09/20 07:26:16;;;;;;;7.57;2.05;;;;;;;23.74;64.33;100370.50;5048608;28;20562;-41
2023/09/20 07:28:43;;;;;;;5.70;1.63;;;;;;;23.76;64.17;100372.91;5051983;28;20053;-40
2023/09/20 07:31:11;;;;;;;8.55;2.17;;;;;;;23.75;63.93;100369.28;5051321;28;20497;-41
2023/09/20 07:33:38;;;;;;;6.90;1.90;;;;;;;23.49;63.84;100366.19;5053091;28;20055;-40
2023/09/20 07:36:06;;;;;;;8.15;1.90;;;;;;;23.63;63.89;100377.38;5056159;28;20063;-40
2023/09/20 07:38:36;;;;;;;6.07;1.95;;;;;;;23.50;63.69;100374.25;5052021;28;20041;-40
2023/09/20 07:41:17;;;;;;;10.57;2.00;;;;;;;23.31;64.09;100367.09;5037323;28;20049;-40
2023/09/20 07:43:47;;;;;;;9.13;2.38;;;;;;;23.09;63.85;100362.72;5050436;28;20049;-40
2023/09/20 07:46:15;;;;;;;2.63;1.30;;;;;;;23.12;64.24;100363.91;5046318;28;20546;-42
2023/09/20 07:48:50;;;;;;;6.45;2.10;;;;;;;22.97;64.67;100365.16;5051911;28;20041;-41
2023/09/20 07:51:28;;;;;;;6.20;1.90;;;;;;;23.27;63.91;100357.03;5052289;28;20056;-42
2023/09/20 07:53:56;;;;;;;8.48;1.88;;;;;;;23.37;64.46;100364.66;5043917;28;20045;-41
2023/09/20 07:56:24;;;;;;;4.80;1.52;;;;;;;23.64;63.08;100359.31;5046072;28;20048;-40
2023/09/20 07:58:53;;;;;;;6.07;1.80;;;;;;;23.86;62.38;100358.78;5045579;28;20043;-42
2023/09/20 08:01:24;;;;;;;;;;;;;;;24.06;61.68;100350.63;5045262;28;20056;-41
2023/09/20 08:03:52;;;;;;;9.70;2.22;;;;;;;24.16;61.13;100359.00;5046213;28;20457;-41
2023/09/20 08:06:33;;;;;;;6.95;1.85;;;;;;;24.21;60.72;100352.94;5043525;28;20057;-39
2023/09/20 08:09:05;;;;;;;8.95;2.10;;;;;;;24.25;61.08;100350.09;5045098;28;20052;-40
2023/09/20 08:11:33;;;;;;;5.30;1.92;;;;;;;24.27;61.01;100353.25;5045326;28;20492;-39
2023/09/20 08:14:03;;;;;;;7.93;2.15;;;;;;;24.29;60.61;100357.28;5040898;28;20045;-43
2023/09/20 08:16:34;;;;;;;8.13;2.03;;;;;;;24.30;60.39;100358.84;5051206;28;20049;-39
2023/09/20 08:19:23;;;;;;;7.18;1.73;;;;;;;24.31;60.56;100354.84;5038598;28;20423;-43
2023/09/20 08:21:54;;;;;;;7.07;2.00;;;;;;;24.27;60.65;100348.44;5043824;28;20053;-40
2023/09/20 09:00:36;;;;;;;8.38;2.00;;;;;;;24.32;60.25;100356.44;5038419;28;20041;-41
2023/09/20 09:03:04;;;;;;;10.82;2.20;;;;;;;24.33;60.41;100346.78;5043182;28;20061;-43
2023/09/20 09:05:33;;;;;;;4.82;2.05;;;;;;;24.33;60.22;100355.25;5051367;28;20072;-40
2023/09/20 09:08:02;;;;;;;5.75;1.92;;;;;;;24.33;60.45;100346.78;5042775;28;20045;-38
2023/09/20 09:10:30;;;;;;;6.28;2.08;;;;;;;24.37;60.28;100352.41;5055690;28;20048;-42
2023/09/20 09:12:57;;;;;;;7.55;1.70;;;;;;;23.92;61.51;100331.00;5045407;28;20068;-42
2023/09/20 09:15:27;;;;;;;5.75;2.00;;;;;;;23.86;61.56;100327.81;5049528;28;20212;-45
2023/09/20 09:17:55;;;;;;;8.75;2.58;;;;;;;24.02;61.38;100330.97;5046708;28;20041;-41
2023/09/20 09:20:23;;;;;;;7.25;2.25;;;;;;;24.16;60.87;100324.41;5049726;28;20044;-43
2023/09/20 09:22:51;;;;;;;6.10;1.67;;;;;;;24.25;60.31;100319.13;5044731;28;20464;-40
2023/09/20 09:25:24;;;;;;;5.97;1.88;;;;;;;24.32;60.01;100311.38;5045867;28;20049;-42
2023/09/20 09:27:53;;;;;;;5.53;1.83;;;;;;;24.35;60.14;100298.50;5041467;28;20056;-42
2023/09/20 09:30:21;;;;;;;6.78;1.73;;;;;;;24.38;59.62;100290.03;5048517;28;20187;-41
2023/09/20 09:32:50;;;;;;;5.90;1.90;;;;;;;24.38;59.91;100292.84;5042742;28;20052;-40
2023/09/20 09:35:21;;;;;;;9.00;2.30;;;;;;;24.39;59.86;100290.84;5044375;28;20495;-43
2023/09/20 09:38:08;;;;;;;6.57;1.83;;;;;;;24.34;60.16;100291.25;5051520;28;20496;-44
2023/09/20 09:40:56;;;;;;;11.05;2.42;;;;;;;24.31;60.10;100289.28;5052255;28;20063;-40
2023/09/20 09:43:29;;;;;;;6.72;1.88;;;;;;;24.32;59.90;100276.81;5045702;28;20406;-39
2023/09/20 09:46:08;;;;;;;8.25;2.30;;;;;;;24.30;59.93;100276.44;5048565;28;20056;-40
2023/09/20 09:48:42;;;;;;;5.82;1.90;;;;;;;24.26;60.05;100275.66;5056190;28;20057;-41
2023/09/20 09:51:10;;;;;;;8.00;2.00;;;;;;;24.31;59.53;100264.75;5044828;28;20033;-40
2023/09/20 09:53:39;;;;;;;6.03;2.17;;;;;;;24.28;59.70;100271.22;5036741;28;20049;-41
2023/09/20 09:56:08;;;;;;;5.22;1.77;;;;;;;24.28;59.09;100262.78;5054424;28;20057;-41
2023/09/20 09:58:37;;;;;;;4.53;2.00;;;;;;;24.28;59.44;100256.34;5046871;28;20499;-42
2023/09/20 10:01:05;;;;;;;5.25;2.03;;;;;;;24.26;59.14;100253.94;5043788;28;20045;-40
2023/09/20 10:03:34;;;;;;;7.18;1.90;;;;;;;24.24;58.89;100253.56;5044166;28;20048;-42
2023/09/20 10:06:14;;;;;;;8.63;2.33;;;;;;;24.27;59.08;100252.72;5027590;28;20053;-39
2023/09/20 10:08:42;;;;;;;12.50;2.67;;;;;;;24.29;58.63;100249.50;5061097;28;20049;-53
2023/09/20 10:11:10;;;;;;;6.68;2.30;;;;;;;24.29;58.60;100246.69;5045918;28;20056;-58
2023/09/20 10:13:39;;;;;;;4.70;1.70;;;;;;;24.28;58.37;100243.09;5045601;28;20045;-52
2023/09/20 10:16:10;;;;;;;10.38;4.07;;;;;;;24.23;58.24;100232.25;5044099;28;20049;-52
2023/09/20 10:18:51;;;;;;;5.35;2.13;;;;;;;24.25;58.13;100232.63;5046298;28;20168;-51
2023/09/20 10:21:26;;;;;;;8.43;2.25;;;;;;;24.19;56.82;100239.94;5043223;28;20472;-58
2023/09/20 10:23:55;;;;;;;5.65;2.33;;;;;;;24.12;57.80;100225.94;5047840;28;20049;-53
2023/09/20 10:26:23;;;;;;;7.30;2.33;;;;;;;24.15;57.97;100222.28;5048786;28;20152;-49
2023/09/20 10:29:24;;;;;;;4.90;2.10;;;;;;;24.31;57.53;100218.91;5056713;28;20060;-52
2023/09/20 10:32:13;;;;;;;7.75;2.67;;;;;;;24.44;57.34;100220.75;5052546;28;20056;-51
2023/09/20 10:35:19;;;;;;;5.78;2.00;;;;;;;24.51;56.98;100225.53;5048631;28;20060;-51
2023/09/20 10:38:20;;;;;;;7.65;2.40;;;;;;;24.53;59.45;100225.91;5046038;28;20052;-55
2023/09/20 10:40:55;;;;;;;4.38;2.45;;;;;;;24.60;59.46;100225.81;5055607;28;20061;-50
2023/09/20 10:43:41;;;;;;;7.13;2.78;;;;;;;24.54;58.63;100216.25;5052026;28;20487;-50
2023/09/20 10:46:12;;;;;;;4.97;2.13;;;;;;;24.55;57.24;100225.50;5052429;28;20056;-51
2023/09/20 10:48:49;;;;;;;4.43;2.47;;;;;;;24.58;55.69;100221.84;5057033;28;20060;-52
2023/09/20 10:51:54;;;;;;;7.28;2.20;;;;;;;24.56;55.64;100213.00;5050183;28;20044;-51
2023/09/20 10:54:25;;;;;;;9.48;3.83;;;;;;;24.61;55.29;100210.53;5049414;28;20064;-54
2023/09/20 10:57:03;;;;;;;12.70;3.90;;;;;;;24.68;54.70;100209.66;5054274;28;20050;-53
2023/09/20 10:59:31;;;;;;;5.50;2.65;;;;;;;24.71;54.46;100201.19;5049791;28;20057;-51
2023/09/20 11:02:05;;;;;;;5.55;2.75;;;;;;;24.72;53.90;100199.97;5045636;28;20574;-47
2023/09/20 11:04:33;;;;;;;5.15;2.40;;;;;;;24.73;53.94;100197.94;5038460;28;20052;-47
2023/09/20 11:07:02;;;;;;;6.35;2.63;;;;;;;24.73;53.88;100187.47;5041854;28;20055;-52
2023/09/20 11:09:33;;;;;;;4.88;2.55;;;;;;;24.68;53.62;100187.91;5041916;28;20500;-49
2023/09/20 11:12:09;;;;;;;7.93;2.75;;;;;;;24.72;53.46;100197.16;5046191;28;20056;-53
2023/09/20 11:14:39;;;;;;;7.65;2.63;;;;;;;24.76;53.16;100185.84;5041286;28;20053;-50
2023/09/20 11:17:12;;;;;;;5.32;2.50;;;;;;;24.66;53.14;100193.16;5047097;28;20052;-50
2023/09/20 11:19:40;;;;;;;6.45;3.33;;;;;;;24.66;52.64;100181.91;5044952;28;20056;-53
2023/09/20 11:22:07;;;;;;;7.75;4.85;;;;;;;24.74;53.22;100180.63;5042057;28;20053;-52
2023/09/20 11:24:36;;;;;;;8.85;3.10;;;;;;;24.73;53.37;100183.84;5046433;28;20054;-49
2023/09/20 11:27:04;;;;;;;9.13;3.45;;;;;;;24.81;52.79;100179.75;5047565;28;20056;-48
2023/09/20 11:29:35;;;;;;;9.48;4.45;;;;;;;24.85;52.53;100160.75;5050064;28;20144;-53
2023/09/20 11:32:03;;;;;;;9.40;3.83;;;;;;;24.86;52.25;100165.97;5048123;28;20522;-53
2023/09/20 11:34:51;;;;;;;9.13;2.90;;;;;;;24.84;52.32;100162.00;5058950;28;20041;-54
2023/09/20 11:37:20;;;;;;;8.70;4.40;;;;;;;24.83;52.68;100157.56;5039241;28;20053;-52
2023/09/20 11:39:48;;;;;;;7.93;4.05;;;;;;;24.87;52.30;100155.50;5039629;28;20068;-58
2023/09/20 11:42:36;;;;;;;6.18;3.50;;;;;;;24.83;52.15;100154.75;5047994;28;20051;-58
2023/09/20 11:45:08;;;;;;;7.50;3.90;;;;;;;24.85;51.17;100147.47;5037380;28;20083;-52
2023/09/20 11:47:42;;;;;;;6.47;3.17;;;;;;;24.87;51.52;100141.41;5048418;28;20060;-49
2023/09/20 11:50:14;;;;;;;10.02;3.30;;;;;;;24.96;50.37;100141.69;5046095;28;20056;-51
2023/09/20 11:52:48;;;;;;;8.27;3.92;;;;;;;24.98;50.76;100144.88;5042205;28;20044;-51
2023/09/20 11:55:19;;;;;;;5.80;3.13;;;;;;;24.90;51.05;100154.63;5041221;28;20044;-54
2023/09/20 11:57:47;;;;;;;8.65;3.30;;;;;;;24.92;50.75;100150.19;5046505;28;20060;-47
2023/09/20 12:00:16;;;;;;;8.82;3.40;;;;;;;24.86;50.13;100148.28;5038287;28;20083;-51
2023/09/20 12:02:45;;;;;;;6.30;2.80;;;;;;;24.80;51.48;100136.69;5037381;28;20056;-52
2023/09/20 12:05:12;;;;;;;8.23;2.80;;;;;;;24.87;51.41;100138.59;5048708;28;20420;-54
2023/09/20 12:07:40;;;;;;;9.73;2.50;;;;;;;24.95;49.90;100145.75;5048981;28;20052;-52
2023/09/20 12:10:08;;;;;;;6.43;1.90;;;;;;;24.97;49.63;100123.53;5049890;28;20044;-52
2023/09/20 12:12:35;;;;;;;8.68;2.33;;;;;;;24.96;50.65;100124.78;5049812;28;20049;-53
2023/09/20 12:15:06;;;;;;;7.50;2.17;;;;;;;24.99;50.08;100130.38;5049721;28;20052;-47